createdAt,value
2018-05-12T00:01:51.657Z,14.97
2018-05-12T00:04:19.516Z,15.80
2018-05-12T00:06:47.083Z,14.20
2018-05-12T00:09:14.754Z,16.17
2018-05-12T00:11:42.310Z,14.67
2018-05-12T00:14:09.862Z,14.40
2018-05-12T00:16:37.425Z,15.30
2018-05-12T00:19:05.088Z,16.02
2018-05-12T00:21:32.646Z,15.67
2018-05-12T00:24:00.192Z,16.57
2018-05-12T00:26:28.687Z,15.23
2018-05-12T00:28:56.349Z,16.17
2018-05-12T00:31:23.878Z,15.63
2018-05-12T00:33:51.430Z,17.20
2018-05-12T00:36:19.032Z,16.70
2018-05-12T00:38:46.585Z,17.35
2018-05-12T00:41:14.146Z,15.07
2018-05-12T00:43:41.716Z,15.43
2018-05-12T00:46:09.265Z,15.63
2018-05-12T00:48:36.937Z,14.73
2018-05-12T00:51:04.495Z,16.50
2018-05-12T00:53:32.148Z,15.63
2018-05-12T00:55:59.709Z,15.53
2018-05-12T00:58:27.371Z,14.98
2018-05-12T01:00:54.929Z,17.47
2018-05-12T01:03:22.506Z,17.40
2018-05-12T01:05:50.037Z,16.27
2018-05-12T01:08:17.712Z,17.10
2018-05-12T01:10:45.271Z,16.70
2018-05-12T01:13:12.914Z,16.07
2018-05-12T01:15:40.471Z,16.00
2018-05-12T01:18:07.999Z,16.70
2018-05-12T01:20:35.571Z,18.40
2018-05-12T01:23:03.176Z,16.63
2018-05-12T01:25:30.754Z,15.90
2018-05-12T01:27:58.292Z,17.10
2018-05-12T01:30:25.876Z,17.40
2018-05-12T01:32:53.431Z,17.10
2018-05-12T01:35:21.010Z,17.40
2018-05-12T01:37:48.537Z,19.23
2018-05-12T01:40:16.193Z,20.88
2018-05-12T01:42:43.749Z,17.80
2018-05-12T01:45:11.412Z,17.20
2018-05-12T01:47:38.945Z,18.00
2018-05-12T01:50:06.525Z,17.63
2018-05-12T01:52:34.050Z,20.60
2018-05-12T01:55:01.716Z,17.43
2018-05-12T01:57:29.620Z,17.75
2018-05-12T01:59:57.283Z,18.70
2018-05-12T02:02:24.840Z,20.90
2018-05-12T02:04:52.413Z,19.43
2018-05-12T02:07:19.938Z,16.07
2018-05-12T02:09:47.485Z,19.23
2018-05-12T02:12:15.081Z,19.60
2018-05-12T02:14:42.645Z,17.83
2018-05-12T02:17:10.174Z,17.43
2018-05-12T02:19:37.757Z,16.70
2018-05-12T02:22:05.302Z,19.90
2018-05-12T02:24:32.879Z,20.27
2018-05-12T02:27:00.415Z,19.17
2018-05-12T02:29:27.982Z,18.93
2018-05-12T02:31:55.556Z,19.40
2018-05-12T02:34:23.114Z,17.53
2018-05-12T02:36:50.640Z,17.93
2018-05-12T02:39:18.344Z,18.17
2018-05-12T02:41:45.895Z,18.47
2018-05-12T02:44:13.558Z,18.33
2018-05-12T02:46:41.198Z,20.02
2018-05-12T02:49:08.750Z,18.80
2018-05-12T02:51:36.329Z,20.53
2018-05-12T02:54:03.906Z,19.77
2018-05-12T02:56:31.480Z,19.27
2018-05-12T02:58:59.018Z,21.10
2018-05-12T03:01:26.613Z,20.17
2018-05-12T03:03:54.172Z,19.60
2018-05-12T03:06:21.810Z,18.73
2018-05-12T03:08:49.348Z,20.63
2018-05-12T03:11:16.921Z,19.43
2018-05-12T03:13:44.445Z,20.58
2018-05-12T03:16:12.039Z,20.53
2018-05-12T03:18:39.596Z,21.53
2018-05-12T03:21:07.276Z,18.87
2018-05-12T03:23:34.820Z,18.73
2018-05-12T03:26:02.410Z,20.33
2018-05-12T03:28:29.968Z,18.87
2018-05-12T03:30:57.566Z,17.27
2018-05-12T03:33:25.159Z,20.73
2018-05-12T03:35:52.718Z,18.43
2018-05-12T03:38:20.244Z,20.60
2018-05-12T03:40:47.797Z,20.30
2018-05-12T03:43:15.400Z,21.30
2018-05-12T03:45:43.064Z,23.10
2018-05-12T03:48:10.607Z,19.20
2018-05-12T03:50:38.281Z,19.87
2018-05-12T03:53:05.834Z,19.37
2018-05-12T03:55:33.481Z,21.37
2018-05-12T03:58:01.014Z,20.70
2018-05-12T04:00:28.571Z,18.20
2018-05-12T04:02:56.180Z,19.53
2018-05-12T04:05:35.421Z,20.37
2018-05-12T04:11:19.577Z,18.53
2018-05-12T04:13:47.125Z,18.77
2018-05-12T04:16:14.706Z,19.08
2018-05-12T04:18:42.260Z,17.70
2018-05-12T04:21:09.830Z,18.73
2018-05-12T04:23:37.390Z,18.35
2018-05-12T04:26:04.968Z,19.87
2018-05-12T04:28:32.603Z,20.23
2018-05-12T04:31:00.170Z,20.33
2018-05-12T04:33:27.824Z,21.33
2018-05-12T04:35:55.393Z,20.48
2018-05-12T04:38:23.049Z,23.57
2018-05-12T04:40:50.604Z,21.37
2018-05-12T04:43:18.365Z,20.97
2018-05-12T04:45:45.805Z,20.20
2018-05-12T04:48:13.385Z,20.13
2018-05-12T04:50:40.954Z,20.77
2018-05-12T04:53:08.613Z,22.55
2018-05-12T04:55:36.136Z,20.80
2018-05-12T04:58:03.717Z,22.67
2018-05-12T05:00:31.286Z,21.07
2018-05-12T05:02:58.948Z,20.17
2018-05-12T05:05:26.523Z,22.27
2018-05-12T05:07:54.100Z,22.20
2018-05-12T05:10:21.706Z,21.75
2018-05-12T05:12:49.283Z,21.80
2018-05-12T05:15:16.842Z,22.07
2018-05-12T05:17:44.413Z,21.67
2018-05-12T05:20:11.967Z,23.20
2018-05-12T05:22:39.539Z,23.47
2018-05-12T05:25:07.091Z,21.17
2018-05-12T05:27:34.749Z,22.80
2018-05-12T05:30:02.308Z,22.63
2018-05-12T05:32:29.970Z,22.77
2018-05-12T05:34:57.506Z,23.00
2018-05-12T05:37:25.204Z,21.93
2018-05-12T05:39:52.857Z,22.17
2018-05-12T05:42:20.410Z,21.47
2018-05-12T05:44:47.975Z,23.17
2018-05-12T05:47:15.539Z,22.00
2018-05-12T05:49:43.063Z,23.10
2018-05-12T05:52:10.660Z,21.57
2018-05-12T05:54:38.203Z,22.30
2018-05-12T05:57:05.772Z,22.63
2018-05-12T05:59:33.344Z,22.33
2018-05-12T06:02:00.874Z,22.77
2018-05-12T06:04:28.453Z,23.37
2018-05-12T06:06:56.034Z,21.10
2018-05-12T06:09:23.579Z,20.48
2018-05-12T06:11:51.135Z,21.17
2018-05-12T06:14:18.712Z,21.00
2018-05-12T06:16:46.237Z,20.97
2018-05-12T06:19:13.909Z,21.63
2018-05-12T06:21:41.443Z,20.55
2018-05-12T06:24:09.142Z,19.97
2018-05-12T06:26:36.775Z,20.80
2018-05-12T06:29:04.806Z,21.57
2018-05-12T06:31:32.378Z,22.10
2018-05-12T06:33:59.983Z,22.37
2018-05-12T06:36:27.550Z,21.57
2018-05-12T06:38:55.111Z,20.90
2018-05-12T06:41:22.637Z,21.43
2018-05-12T06:43:50.195Z,21.95
2018-05-12T06:46:17.784Z,20.53
2018-05-12T06:48:45.346Z,18.93
2018-05-12T06:51:12.869Z,23.30
2018-05-12T06:53:40.474Z,22.47
2018-05-12T06:56:08.002Z,19.80
2018-05-12T06:58:35.581Z,21.03
2018-05-12T07:01:03.127Z,21.50
2018-05-12T07:03:30.800Z,20.60
2018-05-12T07:05:58.332Z,20.23
2018-05-12T07:08:25.909Z,22.20
2018-05-12T07:10:53.488Z,19.27
2018-05-12T07:13:21.058Z,19.77
2018-05-12T07:15:49.549Z,19.53
2018-05-12T07:18:17.569Z,20.67
2018-05-12T07:20:46.265Z,21.43
2018-05-12T07:23:13.893Z,20.95
2018-05-12T07:25:41.502Z,20.65
2018-05-12T07:28:09.058Z,21.20
2018-05-12T07:30:36.721Z,21.60
2018-05-12T07:33:04.354Z,21.40
2018-05-12T07:35:31.954Z,22.53
2018-05-12T07:38:00.958Z,23.40
2018-05-12T07:40:28.665Z,22.70
2018-05-12T07:42:56.193Z,21.50
2018-05-12T07:45:25.280Z,20.90
2018-05-12T07:47:52.956Z,20.13
2018-05-12T07:50:20.569Z,21.80
2018-05-12T07:52:48.175Z,22.47
2018-05-12T07:55:15.729Z,22.53
2018-05-12T07:57:43.278Z,23.13
2018-05-12T08:00:10.931Z,21.83
2018-05-12T08:02:38.465Z,23.57
2018-05-12T08:05:06.650Z,23.10
2018-05-12T08:07:34.264Z,24.13
2018-05-12T08:10:02.042Z,24.90
2018-05-12T08:12:30.045Z,23.97
2018-05-12T08:14:57.675Z,23.73
2018-05-12T08:17:25.573Z,23.80
2018-05-12T08:19:53.204Z,25.77
2018-05-12T08:22:20.752Z,26.42
2018-05-12T08:24:48.457Z,24.77
2018-05-12T08:27:16.017Z,24.73
2018-05-12T08:29:43.679Z,25.53
2018-05-12T08:32:11.211Z,25.33
2018-05-12T08:34:38.912Z,27.13
2018-05-12T08:37:11.114Z,26.90
2018-05-12T08:39:41.070Z,25.50
2018-05-12T08:42:11.670Z,25.53
2018-05-12T08:44:42.118Z,26.80
2018-05-12T08:47:09.806Z,26.60
2018-05-12T08:49:37.426Z,27.10
2018-05-12T08:52:04.955Z,26.43
2018-05-12T08:54:32.587Z,27.03
2018-05-12T08:57:00.134Z,26.87
2018-05-12T08:59:27.714Z,27.73
2018-05-12T09:01:55.239Z,26.37
2018-05-12T09:04:22.835Z,26.57
2018-05-12T09:06:50.493Z,27.13
2018-05-12T09:09:18.044Z,26.10
2018-05-12T09:11:45.801Z,25.53
2018-05-12T09:14:13.349Z,26.08
2018-05-12T09:16:41.653Z,26.90
2018-05-12T09:19:12.229Z,24.73
2018-05-12T09:21:45.300Z,23.23
2018-05-12T09:24:18.428Z,25.03
2018-05-12T09:26:51.027Z,24.48
2018-05-12T09:29:23.715Z,21.67
2018-05-12T09:34:33.933Z,21.43
2018-05-12T09:37:07.339Z,23.77
2018-05-12T09:39:38.026Z,22.90
2018-05-12T09:42:09.925Z,23.33
2018-05-12T09:44:42.374Z,23.53
2018-05-12T09:47:13.827Z,16.30
2018-05-12T09:49:47.279Z,15.70
2018-05-12T09:52:20.580Z,13.00
2018-05-12T09:54:56.053Z,15.20
2018-05-12T09:57:30.235Z,16.87
2018-05-12T09:59:59.069Z,17.57
2018-05-12T10:02:27.593Z,16.77
2018-05-12T10:04:55.642Z,19.55
2018-05-12T10:07:26.849Z,17.90
2018-05-12T10:09:55.953Z,17.63
2018-05-12T10:12:24.853Z,16.43
2018-05-12T10:14:55.409Z,12.43
2018-05-12T10:17:23.122Z,11.03
2018-05-12T10:19:56.587Z,10.00
2018-05-12T10:22:35.954Z,14.02
2018-05-12T10:25:08.879Z,10.23
2018-05-12T10:27:45.033Z,10.97
2018-05-12T10:30:22.265Z,15.37
2018-05-12T10:32:55.253Z,14.30
2018-05-12T10:35:30.872Z,13.27
2018-05-12T10:40:38.190Z,9.03
2018-05-12T10:43:11.887Z,7.70
2018-05-12T10:45:44.505Z,7.87
2018-05-12T10:48:16.784Z,7.90
2018-05-12T10:50:50.648Z,8.75
2018-05-12T10:53:24.935Z,6.50
2018-05-12T10:55:59.418Z,7.57
2018-05-12T10:58:35.345Z,7.33
2018-05-12T11:01:11.043Z,7.53
2018-05-12T11:03:44.922Z,7.97
2018-05-12T11:06:18.423Z,9.30
2018-05-12T11:11:28.354Z,5.57
2018-05-12T11:14:03.765Z,5.43
2018-05-12T11:16:36.804Z,5.20
2018-05-12T11:19:08.921Z,5.03
2018-05-12T11:21:46.465Z,5.18
2018-05-12T11:24:18.074Z,4.90
2018-05-12T11:26:48.103Z,4.37
2018-05-12T11:29:15.831Z,4.73
2018-05-12T11:31:46.048Z,5.53
2018-05-12T11:34:14.636Z,5.67
2018-05-12T11:36:42.193Z,4.77
2018-05-12T11:39:13.404Z,4.90
2018-05-12T11:41:44.150Z,4.63
2018-05-12T11:44:14.478Z,5.17
2018-05-12T11:46:46.104Z,4.62
2018-05-12T11:49:18.287Z,4.50
2018-05-12T11:51:48.999Z,4.80
2018-05-12T11:54:17.458Z,4.57
2018-05-12T11:56:48.318Z,4.90
2018-05-12T11:59:19.688Z,5.20
2018-05-12T12:01:48.425Z,5.73
2018-05-12T12:04:16.013Z,5.00
2018-05-12T12:06:43.630Z,5.62
2018-05-12T12:09:14.030Z,4.30
2018-05-12T12:11:44.368Z,4.60
2018-05-12T12:14:13.666Z,4.57
2018-05-12T12:16:43.394Z,4.50
2018-05-12T12:19:11.064Z,4.60
2018-05-12T12:21:41.267Z,4.50
2018-05-12T12:24:08.988Z,4.40
2018-05-12T12:26:36.597Z,4.30
2018-05-12T12:29:06.974Z,4.20
2018-05-12T12:31:34.940Z,4.63
2018-05-12T12:34:02.479Z,5.00
2018-05-12T12:36:31.965Z,4.80
2018-05-12T12:38:59.638Z,4.67
2018-05-12T12:41:27.209Z,4.40
2018-05-12T12:43:54.761Z,4.63
2018-05-12T12:46:22.295Z,4.78
2018-05-12T12:48:49.853Z,4.37
2018-05-12T12:51:17.418Z,4.30
2018-05-12T12:53:44.975Z,4.33
2018-05-12T12:56:12.497Z,3.90
2018-05-12T12:58:40.050Z,3.93
2018-05-12T13:01:08.072Z,4.32
2018-05-12T13:03:35.725Z,4.03
2018-05-12T13:06:03.261Z,4.00
2018-05-12T13:08:30.808Z,3.67
2018-05-12T13:10:58.337Z,3.80
2018-05-12T13:13:25.970Z,3.73
2018-05-12T13:15:53.592Z,3.73
2018-05-12T13:18:21.116Z,3.87
2018-05-12T13:20:48.645Z,4.00
2018-05-12T13:23:16.306Z,3.47
2018-05-12T13:25:43.826Z,3.20
2018-05-12T13:28:11.429Z,3.47
2018-05-12T13:30:38.953Z,4.20
2018-05-12T13:33:06.585Z,3.20
2018-05-12T13:35:34.705Z,3.17
2018-05-12T13:38:02.309Z,3.27
2018-05-12T13:40:30.447Z,3.43
2018-05-12T13:42:58.113Z,3.60
2018-05-12T13:45:25.673Z,3.45
2018-05-12T13:47:53.826Z,3.77
2018-05-12T13:50:25.123Z,3.40
2018-05-12T13:52:52.721Z,3.80
2018-05-12T13:55:20.310Z,3.73
2018-05-12T13:57:47.953Z,3.67
2018-05-12T14:00:15.534Z,3.85
2018-05-12T14:02:43.204Z,3.87
2018-05-12T14:05:10.762Z,4.47
2018-05-12T14:07:38.643Z,4.50
2018-05-12T14:10:06.363Z,4.03
2018-05-12T14:12:34.141Z,4.20
2018-05-12T14:15:01.722Z,4.37
2018-05-12T14:17:29.346Z,3.47
2018-05-12T14:19:56.929Z,3.97
2018-05-12T14:22:24.489Z,3.50
2018-05-12T14:24:52.095Z,4.05
2018-05-12T14:27:19.904Z,4.32
2018-05-12T14:29:49.757Z,3.60
2018-05-12T14:32:17.391Z,3.80
2018-05-12T14:34:44.938Z,3.20
2018-05-12T14:37:12.513Z,3.37
2018-05-12T14:39:40.691Z,3.70
2018-05-12T14:42:08.346Z,3.93
2018-05-12T14:44:35.899Z,3.70
2018-05-12T14:47:03.465Z,3.80
2018-05-12T14:49:31.949Z,3.57
2018-05-12T14:51:59.504Z,4.03
2018-05-12T14:54:27.053Z,3.83
2018-05-12T14:56:54.606Z,3.72
2018-05-12T14:59:22.491Z,3.70
2018-05-12T15:01:51.789Z,3.50
2018-05-12T15:04:19.358Z,4.07
2018-05-12T15:06:46.915Z,3.80
2018-05-12T15:09:14.776Z,3.97
2018-05-12T15:11:42.335Z,3.80
2018-05-12T15:14:10.574Z,3.62
2018-05-12T15:16:38.153Z,3.80
2018-05-12T15:19:05.751Z,4.07
2018-05-12T15:21:34.150Z,4.03
2018-05-12T15:24:03.078Z,3.40
2018-05-12T15:26:30.977Z,3.50
2018-05-12T15:29:01.531Z,3.70
2018-05-12T15:31:30.590Z,3.60
2018-05-12T15:33:59.302Z,3.50
2018-05-12T15:36:27.658Z,3.60
2018-05-12T15:38:56.596Z,4.05
2018-05-12T15:41:24.328Z,3.50
2018-05-12T15:43:52.031Z,3.63
2018-05-12T15:46:19.601Z,3.80
2018-05-12T15:48:47.203Z,3.87
2018-05-12T15:51:15.422Z,3.40
2018-05-12T15:53:42.957Z,4.00
2018-05-12T15:56:11.634Z,3.50
2018-05-12T15:58:39.175Z,3.53
2018-05-12T16:01:06.734Z,3.33
2018-05-12T16:03:34.264Z,3.27
2018-05-12T16:06:01.820Z,3.00
2018-05-12T16:08:29.346Z,2.97
2018-05-12T16:10:56.898Z,2.95
2018-05-12T16:13:24.431Z,3.30
2018-05-12T16:15:52.092Z,3.42
2018-05-12T16:18:19.631Z,4.00
2018-05-12T16:20:47.210Z,3.47
2018-05-12T16:23:17.030Z,3.20
2018-05-12T16:25:48.079Z,3.03
2018-05-12T16:28:19.850Z,3.70
2018-05-12T16:30:50.239Z,3.43
2018-05-12T16:33:21.537Z,3.13
2018-05-12T16:35:49.248Z,3.13
2018-05-12T16:38:16.766Z,3.27
2018-05-12T16:40:44.321Z,3.50
2018-05-12T16:43:11.850Z,3.40
2018-05-12T16:45:39.508Z,3.40
2018-05-12T16:48:07.159Z,3.40
2018-05-12T16:50:34.746Z,3.40
2018-05-12T16:53:02.264Z,3.60
2018-05-12T16:55:29.940Z,3.70
2018-05-12T16:57:57.509Z,4.03
2018-05-12T17:00:25.068Z,3.30
2018-05-12T17:02:52.621Z,3.70
2018-05-12T17:05:23.021Z,4.00
2018-05-12T17:07:53.626Z,3.10
2018-05-12T17:10:25.821Z,3.62
2018-05-12T17:12:56.323Z,3.27
2018-05-12T17:15:26.951Z,3.90
2018-05-12T17:17:56.991Z,3.67
2018-05-12T17:20:28.064Z,3.70
2018-05-12T17:22:59.091Z,3.50
2018-05-12T17:25:27.289Z,3.80
2018-05-12T17:27:54.852Z,3.70
2018-05-12T17:30:23.496Z,3.60
2018-05-12T17:32:51.194Z,4.17
2018-05-12T17:35:18.751Z,4.07
2018-05-12T17:37:46.372Z,3.83
2018-05-12T17:40:13.968Z,4.27
2018-05-12T17:42:41.478Z,4.23
2018-05-12T17:45:11.471Z,3.90
2018-05-12T17:47:39.112Z,4.03
2018-05-12T17:50:06.643Z,4.30
2018-05-12T17:52:34.324Z,4.03
2018-05-12T17:55:01.884Z,4.43
2018-05-12T17:57:29.551Z,4.30
2018-05-12T17:59:57.115Z,4.30
2018-05-12T18:02:24.701Z,4.33
2018-05-12T18:04:52.226Z,4.57
2018-05-12T18:07:19.782Z,4.73
2018-05-12T18:09:47.380Z,4.53
2018-05-12T18:12:14.933Z,5.50
2018-05-12T18:14:42.564Z,4.83
2018-05-12T18:17:10.239Z,5.10
2018-05-12T18:19:38.605Z,5.17
2018-05-12T18:22:06.233Z,4.60
2018-05-12T18:24:33.761Z,5.13
2018-05-12T18:27:01.344Z,5.13
2018-05-12T18:29:29.046Z,5.47
2018-05-12T18:31:56.613Z,5.87
2018-05-12T18:34:27.251Z,6.17
2018-05-12T18:37:02.317Z,6.93
2018-05-12T18:39:32.481Z,6.40
2018-05-12T18:42:02.578Z,6.57
2018-05-12T18:44:32.411Z,6.93
2018-05-12T18:47:02.112Z,6.87
2018-05-12T18:49:32.765Z,6.03
2018-05-12T18:52:02.834Z,7.12
2018-05-12T18:54:32.584Z,7.03
2018-05-12T18:57:02.743Z,6.83
2018-05-12T18:59:34.075Z,7.20
2018-05-12T19:02:05.421Z,7.00
2018-05-12T19:04:35.833Z,6.83
2018-05-12T19:07:05.537Z,7.40
2018-05-12T19:09:35.014Z,7.37
2018-05-12T19:12:04.781Z,7.33
2018-05-12T19:14:34.694Z,8.10
2018-05-12T19:17:05.806Z,6.47
2018-05-12T19:19:36.536Z,6.23
2018-05-12T19:22:07.245Z,6.27
2018-05-12T19:24:37.399Z,5.90
2018-05-12T19:27:07.355Z,6.10
2018-05-12T19:29:38.845Z,6.67
2018-05-12T19:32:08.513Z,6.10
2018-05-12T19:34:38.620Z,6.23
2018-05-12T19:37:09.053Z,6.93
2018-05-12T19:39:38.920Z,6.73
2018-05-12T19:42:08.983Z,8.20
2018-05-12T19:44:39.479Z,8.00
2018-05-12T19:47:09.190Z,8.50
2018-05-12T19:49:38.714Z,7.57
2018-05-12T19:52:08.222Z,8.37
2018-05-12T19:54:38.336Z,8.17
2018-05-12T19:57:07.953Z,8.53
2018-05-12T19:59:37.773Z,8.30
2018-05-12T20:02:08.129Z,8.80
2018-05-12T20:04:37.980Z,8.47
2018-05-12T20:07:08.606Z,7.77
2018-05-12T20:09:41.510Z,8.70
2018-05-12T20:12:11.343Z,8.00
2018-05-12T20:14:41.143Z,8.53
2018-05-12T20:17:11.377Z,8.10
2018-05-12T20:19:41.044Z,8.55
2018-05-12T20:22:11.916Z,8.07
2018-05-12T20:24:42.758Z,7.87
2018-05-12T20:27:13.380Z,8.30
2018-05-12T20:29:43.830Z,8.30
2018-05-12T20:32:13.882Z,8.10
2018-05-12T20:34:43.876Z,8.37
2018-05-12T20:37:14.899Z,8.60
2018-05-12T20:39:46.146Z,8.40
2018-05-12T20:42:17.195Z,9.57
2018-05-12T20:44:48.968Z,8.60
2018-05-12T20:47:19.545Z,9.33
2018-05-12T20:49:50.191Z,8.67
2018-05-12T20:52:21.228Z,8.73
2018-05-12T20:54:51.556Z,8.80
2018-05-12T20:57:22.794Z,10.00
2018-05-12T20:59:53.700Z,8.55
2018-05-12T21:02:25.429Z,8.43
2018-05-12T21:04:55.831Z,9.33
2018-05-12T21:07:28.309Z,9.23
2018-05-12T21:09:58.339Z,8.70
2018-05-12T21:12:27.562Z,9.30
2018-05-12T21:14:58.369Z,9.30
2018-05-12T21:17:30.141Z,10.10
2018-05-12T21:20:00.325Z,9.77
2018-05-12T21:22:30.346Z,9.67
2018-05-12T21:24:59.636Z,10.18
2018-05-12T21:27:27.811Z,9.80
2018-05-12T21:29:55.369Z,9.47
2018-05-12T21:32:24.056Z,9.70
2018-05-12T21:34:51.742Z,10.00
2018-05-12T21:37:19.268Z,10.23
2018-05-12T21:39:47.417Z,10.23
2018-05-12T21:42:16.850Z,10.43
2018-05-12T21:44:44.574Z,10.40
2018-05-12T21:47:12.097Z,11.13
2018-05-12T21:49:39.666Z,11.60
2018-05-12T21:52:07.296Z,11.17
2018-05-12T21:54:35.150Z,10.80
2018-05-12T21:57:05.655Z,10.87
2018-05-12T22:02:13.337Z,10.87
2018-05-12T22:04:43.064Z,11.87
2018-05-12T22:07:13.751Z,10.97
2018-05-12T22:09:45.443Z,12.30
2018-05-12T22:12:15.331Z,12.43
2018-05-12T22:14:45.401Z,11.63
2018-05-12T22:19:52.003Z,12.82
2018-05-12T22:22:23.637Z,13.33
2018-05-12T22:24:54.803Z,12.40
2018-05-12T22:27:29.035Z,11.60
2018-05-12T22:29:59.107Z,11.68
2018-05-12T22:32:31.524Z,11.70
2018-05-12T22:35:03.515Z,13.10
2018-05-12T22:37:33.915Z,12.63
2018-05-12T22:40:04.617Z,12.27
2018-05-12T22:42:35.847Z,11.93
2018-05-12T22:45:05.981Z,9.63
2018-05-12T22:47:37.196Z,7.97
2018-05-12T22:50:07.796Z,7.37
2018-05-12T22:52:38.887Z,8.75
2018-05-12T22:55:11.499Z,7.43
2018-05-12T22:57:41.464Z,7.13
2018-05-12T23:00:14.488Z,6.77
2018-05-12T23:02:44.437Z,5.77
2018-05-12T23:05:15.374Z,5.13
2018-05-12T23:07:46.351Z,4.43
2018-05-12T23:10:17.714Z,4.33
2018-05-12T23:12:48.257Z,3.60
2018-05-12T23:15:20.574Z,3.70
2018-05-12T23:17:52.901Z,3.40
2018-05-12T23:20:24.005Z,2.90
2018-05-12T23:22:54.308Z,2.63
2018-05-12T23:25:25.713Z,3.35
2018-05-12T23:27:56.891Z,3.00
2018-05-12T23:30:27.833Z,3.28
2018-05-12T23:32:58.475Z,3.10
2018-05-12T23:35:29.816Z,3.00
2018-05-12T23:38:00.731Z,3.30
2018-05-12T23:40:30.823Z,3.27
2018-05-12T23:43:03.447Z,3.17
2018-05-12T23:45:35.587Z,2.78
2018-05-12T23:48:06.130Z,3.00
2018-05-12T23:50:36.697Z,4.57
2018-05-12T23:53:08.785Z,5.77
2018-05-12T23:55:44.933Z,6.17
2018-05-12T23:58:15.555Z,6.18
